Harshaw, Arizona
Current Conditions -  °F | °C
As of 7:56 PM on Wednesday 26 Nov 2014 (Local Time) from KALK Reporting Station
Clear Clear  
Wind Chill: 55°   Ceiling: Unl
Heat Index: 55°   Visibility: 10mi
Dew Point: 16°   Wind: 8mph
Humidity: 22%   Direction: 90°E
Pressure: 30.33"   Gusts: NA
Location:  31.4849°N, 110.609°W
Report Text: KALK 270256Z AUTO 09007KT 10SM CLR 13/M09 A3033 RMK AO2 SLP220 T01281089 53008 TSNO
Loading
Personal Weather Stations






























Interactive Weather Map New forecast layout! Learn more

10-Day Weather Forecast

Advertisements
Track Severe Weather on mobile